sensor_id;sensor_type;location;lat;lon;timestamp;temperature;humidity
14248;DHT22;7208;49.826;6.004;2022-10-26T00:00:03;10.70;99.90
14248;DHT22;7208;49.826;6.004;2022-10-26T00:02:29;10.80;99.90
14248;DHT22;7208;49.826;6.004;2022-10-26T00:04:54;10.80;99.90
14248;DHT22;7208;49.826;6.004;2022-10-26T00:07:20;10.80;99.90
14248;DHT22;7208;49.826;6.004;2022-10-26T00:09:46;10.70;99.90
14248;DHT22;7208;49.826;6.004;2022-10-26T00:12:11;10.70;99.90
14248;DHT22;7208;49.826;6.004;2022-10-26T00:14:37;10.70;99.90
14248;DHT22;7208;49.826;6.004;2022-10-26T00:17:03;10.70;99.90
14248;DHT22;7208;49.826;6.004;2022-10-26T00:19:28;10.60;99.90
14248;DHT22;7208;49.826;6.004;2022-10-26T00:21:57;10.60;99.90
14248;DHT22;7208;49.826;6.004;2022-10-26T00:24:22;10.70;99.90
14248;DHT22;7208;49.826;6.004;2022-10-26T00:26:48;10.70;99.90
14248;DHT22;7208;49.826;6.004;2022-10-26T00:29:13;10.70;99.90
14248;DHT22;7208;49.826;6.004;2022-10-26T00:31:39;10.70;99.90
14248;DHT22;7208;49.826;6.004;2022-10-26T00:34:05;10.70;99.90
14248;DHT22;7208;49.826;6.004;2022-10-26T00:36:31;10.70;99.90
14248;DHT22;7208;49.826;6.004;2022-10-26T00:38:57;10.80;99.90
14248;DHT22;7208;49.826;6.004;2022-10-26T00:41:25;10.80;99.90
14248;DHT22;7208;49.826;6.004;2022-10-26T00:43:52;10.70;99.90
14248;DHT22;7208;49.826;6.004;2022-10-26T00:46:25;10.80;99.90
14248;DHT22;7208;49.826;6.004;2022-10-26T00:49:03;10.80;99.90
14248;DHT22;7208;49.826;6.004;2022-10-26T00:51:38;10.80;99.90
14248;DHT22;7208;49.826;6.004;2022-10-26T00:54:09;10.80;99.90
14248;DHT22;7208;49.826;6.004;2022-10-26T00:56:36;10.80;99.90
14248;DHT22;7208;49.826;6.004;2022-10-26T00:59:05;10.80;99.90
14248;DHT22;7208;49.826;6.004;2022-10-26T01:01:33;10.80;99.90
14248;DHT22;7208;49.826;6.004;2022-10-26T01:03:59;10.70;99.90
14248;DHT22;7208;49.826;6.004;2022-10-26T01:06:27;10.70;99.90
14248;DHT22;7208;49.826;6.004;2022-10-26T01:08:53;10.80;99.90
14248;DHT22;7208;49.826;6.004;2022-10-26T01:11:19;10.70;99.90
14248;DHT22;7208;49.826;6.004;2022-10-26T01:13:45;10.80;99.90
14248;DHT22;7208;49.826;6.004;2022-10-26T01:24:12;10.90;99.90
14248;DHT22;7208;49.826;6.004;2022-10-26T01:32:13;10.80;99.90
14248;DHT22;7208;49.826;6.004;2022-10-26T01:34:46;10.90;99.90
14248;DHT22;7208;49.826;6.004;2022-10-26T01:37:21;10.90;99.90
14248;DHT22;7208;49.826;6.004;2022-10-26T01:40:02;10.90;99.90
14248;DHT22;7208;49.826;6.004;2022-10-26T01:42:31;10.90;99.90
14248;DHT22;7208;49.826;6.004;2022-10-26T01:45:03;10.90;99.90
14248;DHT22;7208;49.826;6.004;2022-10-26T01:47:33;10.80;99.90
14248;DHT22;7208;49.826;6.004;2022-10-26T01:49:59;10.90;99.90
14248;DHT22;7208;49.826;6.004;2022-10-26T01:52:27;10.90;99.90
14248;DHT22;7208;49.826;6.004;2022-10-26T01:57:50;10.90;99.90
14248;DHT22;7208;49.826;6.004;2022-10-26T02:00:16;10.90;99.90
14248;DHT22;7208;49.826;6.004;2022-10-26T02:10:42;10.80;99.90
14248;DHT22;7208;49.826;6.004;2022-10-26T02:13:17;10.70;99.90
14248;DHT22;7208;49.826;6.004;2022-10-26T02:15:58;10.70;99.90
14248;DHT22;7208;49.826;6.004;2022-10-26T02:18:29;10.60;99.90
14248;DHT22;7208;49.826;6.004;2022-10-26T02:21:04;10.60;99.90
14248;DHT22;7208;49.826;6.004;2022-10-26T02:23:33;10.60;99.90
14248;DHT22;7208;49.826;6.004;2022-10-26T02:26:02;10.70;99.90
14248;DHT22;7208;49.826;6.004;2022-10-26T02:28:34;10.70;99.90
14248;DHT22;7208;49.826;6.004;2022-10-26T02:31:01;10.70;99.90
14248;DHT22;7208;49.826;6.004;2022-10-26T02:33:30;10.70;99.90
14248;DHT22;7208;49.826;6.004;2022-10-26T02:35:59;10.60;99.90
14248;DHT22;7208;49.826;6.004;2022-10-26T02:38:26;10.50;99.90
14248;DHT22;7208;49.826;6.004;2022-10-26T02:40:53;10.40;99.90
14248;DHT22;7208;49.826;6.004;2022-10-26T02:43:22;10.40;99.90
14248;DHT22;7208;49.826;6.004;2022-10-26T02:45:56;10.40;99.90
14248;DHT22;7208;49.826;6.004;2022-10-26T02:48:24;10.40;99.90
14248;DHT22;7208;49.826;6.004;2022-10-26T02:51:01;10.40;99.90
14248;DHT22;7208;49.826;6.004;2022-10-26T02:56:12;10.50;99.90
14248;DHT22;7208;49.826;6.004;2022-10-26T02:58:44;10.50;99.90
14248;DHT22;7208;49.826;6.004;2022-10-26T03:01:12;10.50;99.90
14248;DHT22;7208;49.826;6.004;2022-10-26T03:03:38;10.50;99.90
14248;DHT22;7208;49.826;6.004;2022-10-26T03:06:03;10.50;99.90
14248;DHT22;7208;49.826;6.004;2022-10-26T03:08:29;10.50;99.90
14248;DHT22;7208;49.826;6.004;2022-10-26T03:10:55;10.50;99.90
14248;DHT22;7208;49.826;6.004;2022-10-26T03:13:20;10.50;99.90
14248;DHT22;7208;49.826;6.004;2022-10-26T03:15:46;10.50;99.90
14248;DHT22;7208;49.826;6.004;2022-10-26T03:18:12;10.70;99.90
14248;DHT22;7208;49.826;6.004;2022-10-26T03:20:37;10.50;99.90
14248;DHT22;7208;49.826;6.004;2022-10-26T03:23:03;10.50;99.90
14248;DHT22;7208;49.826;6.004;2022-10-26T03:25:29;10.60;99.90
14248;DHT22;7208;49.826;6.004;2022-10-26T03:28:02;10.60;99.90
14248;DHT22;7208;49.826;6.004;2022-10-26T03:30:29;10.50;99.90
14248;DHT22;7208;49.826;6.004;2022-10-26T03:32:55;10.50;99.90
14248;DHT22;7208;49.826;6.004;2022-10-26T03:35:21;10.50;99.90
14248;DHT22;7208;49.826;6.004;2022-10-26T03:37:47;10.40;99.90
14248;DHT22;7208;49.826;6.004;2022-10-26T03:40:13;10.40;99.90
14248;DHT22;7208;49.826;6.004;2022-10-26T03:42:39;10.30;99.90
14248;DHT22;7208;49.826;6.004;2022-10-26T03:45:06;10.30;99.90
14248;DHT22;7208;49.826;6.004;2022-10-26T03:47:32;10.40;99.90
14248;DHT22;7208;49.826;6.004;2022-10-26T03:49:58;10.40;99.90
14248;DHT22;7208;49.826;6.004;2022-10-26T03:52:24;10.30;99.90
14248;DHT22;7208;49.826;6.004;2022-10-26T03:54:50;10.30;99.90
14248;DHT22;7208;49.826;6.004;2022-10-26T03:57:16;10.30;99.90
14248;DHT22;7208;49.826;6.004;2022-10-26T03:59:42;10.30;99.90
14248;DHT22;7208;49.826;6.004;2022-10-26T04:02:08;10.30;99.90
14248;DHT22;7208;49.826;6.004;2022-10-26T04:04:34;10.30;99.90
14248;DHT22;7208;49.826;6.004;2022-10-26T04:06:59;10.30;99.90
14248;DHT22;7208;49.826;6.004;2022-10-26T04:09:25;10.30;99.90
14248;DHT22;7208;49.826;6.004;2022-10-26T04:11:50;10.40;99.90
14248;DHT22;7208;49.826;6.004;2022-10-26T04:14:16;10.40;99.90
14248;DHT22;7208;49.826;6.004;2022-10-26T04:16:42;10.40;99.90
14248;DHT22;7208;49.826;6.004;2022-10-26T04:19:07;10.40;99.90
14248;DHT22;7208;49.826;6.004;2022-10-26T04:21:33;10.40;99.90
14248;DHT22;7208;49.826;6.004;2022-10-26T04:24:00;10.50;99.90
14248;DHT22;7208;49.826;6.004;2022-10-26T04:26:25;10.50;99.90
14248;DHT22;7208;49.826;6.004;2022-10-26T04:28:51;10.40;99.90
14248;DHT22;7208;49.826;6.004;2022-10-26T04:31:17;10.50;99.90
14248;DHT22;7208;49.826;6.004;2022-10-26T04:33:43;10.40;99.90
14248;DHT22;7208;49.826;6.004;2022-10-26T04:36:08;10.40;99.90
14248;DHT22;7208;49.826;6.004;2022-10-26T04:38:34;10.40;99.90
14248;DHT22;7208;49.826;6.004;2022-10-26T04:41:00;10.40;99.90
14248;DHT22;7208;49.826;6.004;2022-10-26T04:43:25;10.40;99.90
14248;DHT22;7208;49.826;6.004;2022-10-26T04:45:57;10.40;99.90
14248;DHT22;7208;49.826;6.004;2022-10-26T04:48:23;10.40;99.90
14248;DHT22;7208;49.826;6.004;2022-10-26T04:50:50;10.40;99.90
14248;DHT22;7208;49.826;6.004;2022-10-26T04:53:15;10.40;99.90
14248;DHT22;7208;49.826;6.004;2022-10-26T04:55:41;10.40;99.90
14248;DHT22;7208;49.826;6.004;2022-10-26T04:58:07;10.50;99.90
14248;DHT22;7208;49.826;6.004;2022-10-26T05:00:33;10.00;99.90
14248;DHT22;7208;49.826;6.004;2022-10-26T05:03:04;10.40;99.90
14248;DHT22;7208;49.826;6.004;2022-10-26T05:05:31;10.40;99.90
14248;DHT22;7208;49.826;6.004;2022-10-26T05:07:57;10.50;99.90
14248;DHT22;7208;49.826;6.004;2022-10-26T05:10:24;10.50;99.90
14248;DHT22;7208;49.826;6.004;2022-10-26T05:12:51;10.50;99.90
14248;DHT22;7208;49.826;6.004;2022-10-26T05:15:17;10.50;99.90
14248;DHT22;7208;49.826;6.004;2022-10-26T05:17:43;10.50;99.90
14248;DHT22;7208;49.826;6.004;2022-10-26T05:20:09;10.50;99.90
14248;DHT22;7208;49.826;6.004;2022-10-26T05:22:38;10.50;99.90
14248;DHT22;7208;49.826;6.004;2022-10-26T05:25:04;10.50;99.90
14248;DHT22;7208;49.826;6.004;2022-10-26T05:27:30;10.50;99.90
14248;DHT22;7208;49.826;6.004;2022-10-26T05:29:56;10.50;99.90
14248;DHT22;7208;49.826;6.004;2022-10-26T05:32:21;10.50;99.90
14248;DHT22;7208;49.826;6.004;2022-10-26T05:34:47;10.40;99.90
14248;DHT22;7208;49.826;6.004;2022-10-26T05:37:12;10.40;99.90
14248;DHT22;7208;49.826;6.004;2022-10-26T05:39:38;10.40;99.90
14248;DHT22;7208;49.826;6.004;2022-10-26T05:42:04;10.30;99.90
14248;DHT22;7208;49.826;6.004;2022-10-26T05:44:29;10.30;99.90
14248;DHT22;7208;49.826;6.004;2022-10-26T05:46:55;10.20;99.90
14248;DHT22;7208;49.826;6.004;2022-10-26T05:49:21;10.20;99.90
14248;DHT22;7208;49.826;6.004;2022-10-26T05:51:46;10.10;99.90
14248;DHT22;7208;49.826;6.004;2022-10-26T05:54:12;10.10;99.90
14248;DHT22;7208;49.826;6.004;2022-10-26T05:56:39;10.10;99.90
14248;DHT22;7208;49.826;6.004;2022-10-26T05:59:11;10.10;99.90
14248;DHT22;7208;49.826;6.004;2022-10-26T06:07:00;10.10;99.90
14248;DHT22;7208;49.826;6.004;2022-10-26T06:09:27;10.10;99.90
14248;DHT22;7208;49.826;6.004;2022-10-26T06:11:53;10.20;99.90
14248;DHT22;7208;49.826;6.004;2022-10-26T06:14:19;10.20;99.90
14248;DHT22;7208;49.826;6.004;2022-10-26T06:20:08;10.30;99.90
14248;DHT22;7208;49.826;6.004;2022-10-26T06:23:05;10.30;99.90
14248;DHT22;7208;49.826;6.004;2022-10-26T06:26:03;10.30;99.90
14248;DHT22;7208;49.826;6.004;2022-10-26T06:31:26;10.40;99.90
14248;DHT22;7208;49.826;6.004;2022-10-26T06:33:57;10.40;99.90
14248;DHT22;7208;49.826;6.004;2022-10-26T06:36:25;10.50;99.90
14248;DHT22;7208;49.826;6.004;2022-10-26T06:39:03;10.60;99.90
14248;DHT22;7208;49.826;6.004;2022-10-26T06:41:32;10.60;99.90
14248;DHT22;7208;49.826;6.004;2022-10-26T06:43:58;10.70;99.90
14248;DHT22;7208;49.826;6.004;2022-10-26T06:52:14;10.70;99.90
14248;DHT22;7208;49.826;6.004;2022-10-26T06:54:51;10.70;99.90
14248;DHT22;7208;49.826;6.004;2022-10-26T06:57:21;10.70;99.90
14248;DHT22;7208;49.826;6.004;2022-10-26T07:02:25;10.60;99.90
14248;DHT22;7208;49.826;6.004;2022-10-26T07:04:50;10.70;99.90
14248;DHT22;7208;49.826;6.004;2022-10-26T07:07:25;10.80;99.90
14248;DHT22;7208;49.826;6.004;2022-10-26T07:09:52;10.90;99.90
14248;DHT22;7208;49.826;6.004;2022-10-26T07:12:17;11.10;99.90
14248;DHT22;7208;49.826;6.004;2022-10-26T07:14:43;11.20;99.90
14248;DHT22;7208;49.826;6.004;2022-10-26T07:17:09;11.30;99.90
14248;DHT22;7208;49.826;6.004;2022-10-26T07:19:35;11.40;99.90
14248;DHT22;7208;49.826;6.004;2022-10-26T07:22:01;11.50;99.90
14248;DHT22;7208;49.826;6.004;2022-10-26T07:24:27;11.50;99.90
14248;DHT22;7208;49.826;6.004;2022-10-26T07:26:54;11.40;99.90
14248;DHT22;7208;49.826;6.004;2022-10-26T07:29:21;11.40;99.90
14248;DHT22;7208;49.826;6.004;2022-10-26T07:31:47;11.40;99.90
14248;DHT22;7208;49.826;6.004;2022-10-26T07:34:13;11.50;99.90
14248;DHT22;7208;49.826;6.004;2022-10-26T07:36:39;11.60;99.90
14248;DHT22;7208;49.826;6.004;2022-10-26T07:39:05;11.70;99.90
14248;DHT22;7208;49.826;6.004;2022-10-26T07:41:31;11.80;99.90
14248;DHT22;7208;49.826;6.004;2022-10-26T07:43:57;11.80;99.90
14248;DHT22;7208;49.826;6.004;2022-10-26T07:46:23;11.80;99.90
14248;DHT22;7208;49.826;6.004;2022-10-26T07:48:49;11.80;99.90
14248;DHT22;7208;49.826;6.004;2022-10-26T07:51:14;11.90;99.90
14248;DHT22;7208;49.826;6.004;2022-10-26T07:53:40;12.00;99.90
14248;DHT22;7208;49.826;6.004;2022-10-26T07:56:06;12.00;99.90
14248;DHT22;7208;49.826;6.004;2022-10-26T07:58:32;12.10;99.90
14248;DHT22;7208;49.826;6.004;2022-10-26T08:01:05;12.20;99.90
14248;DHT22;7208;49.826;6.004;2022-10-26T08:03:31;12.20;99.90
14248;DHT22;7208;49.826;6.004;2022-10-26T08:05:57;12.20;99.90
14248;DHT22;7208;49.826;6.004;2022-10-26T08:08:22;12.20;99.90
14248;DHT22;7208;49.826;6.004;2022-10-26T08:10:48;12.20;99.90
14248;DHT22;7208;49.826;6.004;2022-10-26T08:13:14;12.20;99.90
14248;DHT22;7208;49.826;6.004;2022-10-26T08:15:40;12.30;99.90
14248;DHT22;7208;49.826;6.004;2022-10-26T08:18:05;12.30;99.90
14248;DHT22;7208;49.826;6.004;2022-10-26T08:20:31;12.40;99.90
14248;DHT22;7208;49.826;6.004;2022-10-26T08:22:58;12.50;99.90
14248;DHT22;7208;49.826;6.004;2022-10-26T08:25:24;12.50;99.90
14248;DHT22;7208;49.826;6.004;2022-10-26T08:27:50;12.50;99.90
14248;DHT22;7208;49.826;6.004;2022-10-26T08:30:15;12.60;99.90
14248;DHT22;7208;49.826;6.004;2022-10-26T08:32:41;12.70;99.90
14248;DHT22;7208;49.826;6.004;2022-10-26T08:35:08;12.80;99.90
14248;DHT22;7208;49.826;6.004;2022-10-26T08:37:34;13.00;99.90
14248;DHT22;7208;49.826;6.004;2022-10-26T08:40:00;13.10;99.90
14248;DHT22;7208;49.826;6.004;2022-10-26T08:42:38;13.30;99.90
14248;DHT22;7208;49.826;6.004;2022-10-26T08:45:11;13.40;99.90
14248;DHT22;7208;49.826;6.004;2022-10-26T08:47:46;13.60;99.90
14248;DHT22;7208;49.826;6.004;2022-10-26T08:50:25;13.80;99.90
14248;DHT22;7208;49.826;6.004;2022-10-26T08:52:56;13.80;99.90
14248;DHT22;7208;49.826;6.004;2022-10-26T08:55:39;13.80;99.90
14248;DHT22;7208;49.826;6.004;2022-10-26T08:58:15;13.90;99.90
14248;DHT22;7208;49.826;6.004;2022-10-26T09:00:41;14.00;99.90
14248;DHT22;7208;49.826;6.004;2022-10-26T09:03:16;14.10;99.90
14248;DHT22;7208;49.826;6.004;2022-10-26T09:05:57;14.10;99.90
14248;DHT22;7208;49.826;6.004;2022-10-26T09:08:58;14.40;99.90
14248;DHT22;7208;49.826;6.004;2022-10-26T09:11:36;14.80;99.90
14248;DHT22;7208;49.826;6.004;2022-10-26T09:14:24;15.10;99.90
14248;DHT22;7208;49.826;6.004;2022-10-26T09:20:34;15.70;99.90
14248;DHT22;7208;49.826;6.004;2022-10-26T09:25:26;16.20;99.90
14248;DHT22;7208;49.826;6.004;2022-10-26T09:27:59;16.40;99.90
14248;DHT22;7208;49.826;6.004;2022-10-26T09:30:26;16.50;99.90
14248;DHT22;7208;49.826;6.004;2022-10-26T09:32:58;16.50;99.90
14248;DHT22;7208;49.826;6.004;2022-10-26T09:38:55;16.70;99.90
14248;DHT22;7208;49.826;6.004;2022-10-26T09:41:28;16.80;99.90
14248;DHT22;7208;49.826;6.004;2022-10-26T09:44:11;17.10;99.90
14248;DHT22;7208;49.826;6.004;2022-10-26T09:46:53;17.40;99.90
14248;DHT22;7208;49.826;6.004;2022-10-26T09:49:24;17.50;99.90
14248;DHT22;7208;49.826;6.004;2022-10-26T09:51:55;17.50;99.90
14248;DHT22;7208;49.826;6.004;2022-10-26T09:54:21;17.60;99.90
14248;DHT22;7208;49.826;6.004;2022-10-26T09:56:50;17.80;99.90
14248;DHT22;7208;49.826;6.004;2022-10-26T09:59:20;18.00;99.90
14248;DHT22;7208;49.826;6.004;2022-10-26T10:01:47;18.10;99.90
14248;DHT22;7208;49.826;6.004;2022-10-26T10:06:42;18.50;99.90
14248;DHT22;7208;49.826;6.004;2022-10-26T10:09:21;18.50;99.90
14248;DHT22;7208;49.826;6.004;2022-10-26T10:11:58;18.70;99.90
14248;DHT22;7208;49.826;6.004;2022-10-26T10:14:32;18.60;99.90
14248;DHT22;7208;49.826;6.004;2022-10-26T10:17:01;18.40;99.90
14248;DHT22;7208;49.826;6.004;2022-10-26T10:19:35;17.90;99.90
14248;DHT22;7208;49.826;6.004;2022-10-26T10:22:08;17.80;99.90
14248;DHT22;7208;49.826;6.004;2022-10-26T10:24:39;17.80;99.90
14248;DHT22;7208;49.826;6.004;2022-10-26T10:29:41;18.10;99.90
14248;DHT22;7208;49.826;6.004;2022-10-26T10:34:45;18.70;99.90
14248;DHT22;7208;49.826;6.004;2022-10-26T10:40:16;18.70;99.90
14248;DHT22;7208;49.826;6.004;2022-10-26T10:42:44;18.90;99.90
14248;DHT22;7208;49.826;6.004;2022-10-26T10:45:21;19.10;99.90
14248;DHT22;7208;49.826;6.004;2022-10-26T10:50:36;18.90;99.90
14248;DHT22;7208;49.826;6.004;2022-10-26T10:55:43;18.70;99.90
14248;DHT22;7208;49.826;6.004;2022-10-26T10:58:18;19.10;99.90
14248;DHT22;7208;49.826;6.004;2022-10-26T11:00:48;18.90;99.90
14248;DHT22;7208;49.826;6.004;2022-10-26T11:03:44;19.00;99.90
14248;DHT22;7208;49.826;6.004;2022-10-26T11:06:18;18.80;99.90
14248;DHT22;7208;49.826;6.004;2022-10-26T11:11:24;19.10;99.90
14248;DHT22;7208;49.826;6.004;2022-10-26T11:16:37;19.60;99.90
14248;DHT22;7208;49.826;6.004;2022-10-26T11:19:15;19.80;99.90
14248;DHT22;7208;49.826;6.004;2022-10-26T11:21:47;20.00;99.90
14248;DHT22;7208;49.826;6.004;2022-10-26T11:24:34;20.00;99.90
14248;DHT22;7208;49.826;6.004;2022-10-26T11:32:21;20.50;99.90
14248;DHT22;7208;49.826;6.004;2022-10-26T11:35:03;20.50;99.90
14248;DHT22;7208;49.826;6.004;2022-10-26T11:37:41;20.20;99.90
14248;DHT22;7208;49.826;6.004;2022-10-26T11:40:26;20.10;99.90
14248;DHT22;7208;49.826;6.004;2022-10-26T11:43:16;19.90;99.90
14248;DHT22;7208;49.826;6.004;2022-10-26T11:46:01;19.90;99.90
14248;DHT22;7208;49.826;6.004;2022-10-26T11:49:17;19.60;99.90
14248;DHT22;7208;49.826;6.004;2022-10-26T11:51:47;19.50;99.90
14248;DHT22;7208;49.826;6.004;2022-10-26T11:54:23;19.40;99.90
14248;DHT22;7208;49.826;6.004;2022-10-26T11:56:52;19.70;99.90
14248;DHT22;7208;49.826;6.004;2022-10-26T11:59:25;19.80;99.90
14248;DHT22;7208;49.826;6.004;2022-10-26T12:01:54;19.90;99.90
14248;DHT22;7208;49.826;6.004;2022-10-26T12:04:27;20.00;99.90
14248;DHT22;7208;49.826;6.004;2022-10-26T12:06:54;20.20;99.90
14248;DHT22;7208;49.826;6.004;2022-10-26T12:09:26;20.20;99.90
14248;DHT22;7208;49.826;6.004;2022-10-26T12:12:06;20.10;99.90
14248;DHT22;7208;49.826;6.004;2022-10-26T12:14:48;20.20;99.90
14248;DHT22;7208;49.826;6.004;2022-10-26T12:17:59;20.30;99.90
14248;DHT22;7208;49.826;6.004;2022-10-26T12:20:59;20.70;99.90
14248;DHT22;7208;49.826;6.004;2022-10-26T12:23:35;20.80;99.90
14248;DHT22;7208;49.826;6.004;2022-10-26T12:26:36;20.80;99.90
14248;DHT22;7208;49.826;6.004;2022-10-26T12:33:57;21.20;99.90
14248;DHT22;7208;49.826;6.004;2022-10-26T12:39:39;20.70;99.90
14248;DHT22;7208;49.826;6.004;2022-10-26T13:07:25;20.90;99.90
14248;DHT22;7208;49.826;6.004;2022-10-26T13:15:28;20.40;99.90
14248;DHT22;7208;49.826;6.004;2022-10-26T13:20:36;20.30;99.90
14248;DHT22;7208;49.826;6.004;2022-10-26T13:23:12;20.30;99.90
14248;DHT22;7208;49.826;6.004;2022-10-26T13:25:39;20.30;99.90
14248;DHT22;7208;49.826;6.004;2022-10-26T13:28:29;20.40;99.90
14248;DHT22;7208;49.826;6.004;2022-10-26T13:30:52;20.60;99.90
14248;DHT22;7208;49.826;6.004;2022-10-26T13:33:23;20.30;99.90
14248;DHT22;7208;49.826;6.004;2022-10-26T13:35:52;20.40;99.90
14248;DHT22;7208;49.826;6.004;2022-10-26T13:38:22;20.50;99.90
14248;DHT22;7208;49.826;6.004;2022-10-26T13:40:49;20.20;99.90
14248;DHT22;7208;49.826;6.004;2022-10-26T13:43:20;20.10;99.90
14248;DHT22;7208;49.826;6.004;2022-10-26T13:45:55;20.30;99.90
14248;DHT22;7208;49.826;6.004;2022-10-26T13:48:30;20.40;99.90
14248;DHT22;7208;49.826;6.004;2022-10-26T13:51:04;20.70;99.90
14248;DHT22;7208;49.826;6.004;2022-10-26T13:53:56;20.50;99.90
14248;DHT22;7208;49.826;6.004;2022-10-26T13:56:54;20.70;99.90
14248;DHT22;7208;49.826;6.004;2022-10-26T13:59:22;20.50;99.90
14248;DHT22;7208;49.826;6.004;2022-10-26T14:02:18;20.10;99.90
14248;DHT22;7208;49.826;6.004;2022-10-26T14:04:51;20.10;99.90
14248;DHT22;7208;49.826;6.004;2022-10-26T14:07:21;19.80;99.90
14248;DHT22;7208;49.826;6.004;2022-10-26T14:09:56;19.80;99.90
14248;DHT22;7208;49.826;6.004;2022-10-26T14:12:23;19.60;99.90
14248;DHT22;7208;49.826;6.004;2022-10-26T14:14:50;19.60;99.90
14248;DHT22;7208;49.826;6.004;2022-10-26T14:17:23;19.60;99.90
14248;DHT22;7208;49.826;6.004;2022-10-26T14:19:50;19.80;99.90
14248;DHT22;7208;49.826;6.004;2022-10-26T14:22:21;19.70;99.90
14248;DHT22;7208;49.826;6.004;2022-10-26T14:24:53;19.60;99.90
14248;DHT22;7208;49.826;6.004;2022-10-26T14:27:22;19.70;99.90
14248;DHT22;7208;49.826;6.004;2022-10-26T14:29:53;19.50;99.90
14248;DHT22;7208;49.826;6.004;2022-10-26T14:32:21;19.50;99.90
14248;DHT22;7208;49.826;6.004;2022-10-26T14:34:47;19.50;99.90
14248;DHT22;7208;49.826;6.004;2022-10-26T14:40:01;19.50;99.90
14248;DHT22;7208;49.826;6.004;2022-10-26T14:42:32;19.60;99.90
14248;DHT22;7208;49.826;6.004;2022-10-26T14:44:59;19.60;99.90
14248;DHT22;7208;49.826;6.004;2022-10-26T14:47:30;19.50;99.90
14248;DHT22;7208;49.826;6.004;2022-10-26T14:49:57;19.40;99.90
14248;DHT22;7208;49.826;6.004;2022-10-26T14:52:30;19.20;99.90
14248;DHT22;7208;49.826;6.004;2022-10-26T14:57:34;18.90;99.90
14248;DHT22;7208;49.826;6.004;2022-10-26T15:00:24;18.80;99.90
14248;DHT22;7208;49.826;6.004;2022-10-26T15:02:54;18.80;99.90
14248;DHT22;7208;49.826;6.004;2022-10-26T15:05:25;18.70;99.90
14248;DHT22;7208;49.826;6.004;2022-10-26T15:07:54;18.60;99.90
14248;DHT22;7208;49.826;6.004;2022-10-26T15:13:28;18.40;99.90
14248;DHT22;7208;49.826;6.004;2022-10-26T15:18:38;18.30;99.90
14248;DHT22;7208;49.826;6.004;2022-10-26T15:21:36;18.20;99.90
14248;DHT22;7208;49.826;6.004;2022-10-26T15:24:03;18.10;99.90
14248;DHT22;7208;49.826;6.004;2022-10-26T15:26:41;18.10;99.90
14248;DHT22;7208;49.826;6.004;2022-10-26T15:29:43;18.00;99.90
14248;DHT22;7208;49.826;6.004;2022-10-26T15:32:30;18.10;99.90
14248;DHT22;7208;49.826;6.004;2022-10-26T15:37:41;18.00;99.90
14248;DHT22;7208;49.826;6.004;2022-10-26T15:40:07;17.90;99.90
14248;DHT22;7208;49.826;6.004;2022-10-26T15:42:38;17.90;99.90
14248;DHT22;7208;49.826;6.004;2022-10-26T15:45:14;17.80;99.90
14248;DHT22;7208;49.826;6.004;2022-10-26T15:47:40;17.80;99.90
14248;DHT22;7208;49.826;6.004;2022-10-26T15:50:11;17.70;99.90
14248;DHT22;7208;49.826;6.004;2022-10-26T15:52:37;17.60;99.90
14248;DHT22;7208;49.826;6.004;2022-10-26T15:55:03;17.60;99.90
14248;DHT22;7208;49.826;6.004;2022-10-26T15:57:29;17.60;99.90
14248;DHT22;7208;49.826;6.004;2022-10-26T15:59:54;17.60;99.90
14248;DHT22;7208;49.826;6.004;2022-10-26T16:02:20;17.80;99.90
14248;DHT22;7208;49.826;6.004;2022-10-26T16:04:46;17.80;99.90
14248;DHT22;7208;49.826;6.004;2022-10-26T16:07:15;17.70;99.90
14248;DHT22;7208;49.826;6.004;2022-10-26T16:09:42;17.50;99.90
14248;DHT22;7208;49.826;6.004;2022-10-26T16:12:12;17.30;99.90
14248;DHT22;7208;49.826;6.004;2022-10-26T16:14:38;17.00;99.90
14248;DHT22;7208;49.826;6.004;2022-10-26T16:17:05;16.80;99.90
14248;DHT22;7208;49.826;6.004;2022-10-26T16:19:31;16.70;99.90
14248;DHT22;7208;49.826;6.004;2022-10-26T16:21:57;16.50;99.90
14248;DHT22;7208;49.826;6.004;2022-10-26T16:24:22;16.30;99.90
14248;DHT22;7208;49.826;6.004;2022-10-26T16:26:48;16.20;99.90
14248;DHT22;7208;49.826;6.004;2022-10-26T16:29:14;16.10;99.90
14248;DHT22;7208;49.826;6.004;2022-10-26T16:31:40;15.90;99.90
14248;DHT22;7208;49.826;6.004;2022-10-26T16:34:06;15.90;99.90
14248;DHT22;7208;49.826;6.004;2022-10-26T16:36:31;15.80;99.90
14248;DHT22;7208;49.826;6.004;2022-10-26T16:38:59;15.80;99.90
14248;DHT22;7208;49.826;6.004;2022-10-26T16:41:24;15.70;99.90
14248;DHT22;7208;49.826;6.004;2022-10-26T16:43:50;15.60;99.90
14248;DHT22;7208;49.826;6.004;2022-10-26T16:46:18;15.50;99.90
14248;DHT22;7208;49.826;6.004;2022-10-26T16:48:45;15.40;99.90
14248;DHT22;7208;49.826;6.004;2022-10-26T16:51:12;15.40;99.90
14248;DHT22;7208;49.826;6.004;2022-10-26T16:53:38;15.40;99.90
14248;DHT22;7208;49.826;6.004;2022-10-26T16:56:07;15.40;99.90
14248;DHT22;7208;49.826;6.004;2022-10-26T16:58:33;15.40;99.90
14248;DHT22;7208;49.826;6.004;2022-10-26T17:00:59;15.40;99.90
14248;DHT22;7208;49.826;6.004;2022-10-26T17:03:25;15.30;99.90
14248;DHT22;7208;49.826;6.004;2022-10-26T17:06:02;15.20;99.90
14248;DHT22;7208;49.826;6.004;2022-10-26T17:08:29;15.20;99.90
14248;DHT22;7208;49.826;6.004;2022-10-26T17:11:01;15.10;99.90
14248;DHT22;7208;49.826;6.004;2022-10-26T17:13:27;15.00;99.90
14248;DHT22;7208;49.826;6.004;2022-10-26T17:15:53;14.90;99.90
14248;DHT22;7208;49.826;6.004;2022-10-26T17:18:19;14.80;99.90
14248;DHT22;7208;49.826;6.004;2022-10-26T17:20:48;14.60;99.90
14248;DHT22;7208;49.826;6.004;2022-10-26T17:23:15;14.40;99.90
14248;DHT22;7208;49.826;6.004;2022-10-26T17:25:41;14.30;99.90
14248;DHT22;7208;49.826;6.004;2022-10-26T17:28:06;14.10;99.90
14248;DHT22;7208;49.826;6.004;2022-10-26T17:30:32;14.00;99.90
14248;DHT22;7208;49.826;6.004;2022-10-26T17:32:58;13.90;99.90
14248;DHT22;7208;49.826;6.004;2022-10-26T17:35:24;13.70;99.90
14248;DHT22;7208;49.826;6.004;2022-10-26T17:37:49;13.60;99.90
14248;DHT22;7208;49.826;6.004;2022-10-26T17:40:15;13.60;99.90
14248;DHT22;7208;49.826;6.004;2022-10-26T17:42:41;13.50;99.90
14248;DHT22;7208;49.826;6.004;2022-10-26T17:45:07;13.40;99.90
14248;DHT22;7208;49.826;6.004;2022-10-26T17:47:34;13.30;99.90
14248;DHT22;7208;49.826;6.004;2022-10-26T17:49:59;13.20;99.90
14248;DHT22;7208;49.826;6.004;2022-10-26T17:52:27;13.20;99.90
14248;DHT22;7208;49.826;6.004;2022-10-26T17:54:53;13.20;99.90
14248;DHT22;7208;49.826;6.004;2022-10-26T17:57:19;13.20;99.90
14248;DHT22;7208;49.826;6.004;2022-10-26T17:59:45;13.20;99.90
14248;DHT22;7208;49.826;6.004;2022-10-26T18:02:11;13.20;99.90
14248;DHT22;7208;49.826;6.004;2022-10-26T18:04:37;13.20;99.90
14248;DHT22;7208;49.826;6.004;2022-10-26T18:07:02;13.10;99.90
14248;DHT22;7208;49.826;6.004;2022-10-26T18:09:28;13.10;99.90
14248;DHT22;7208;49.826;6.004;2022-10-26T18:11:54;13.10;99.90
14248;DHT22;7208;49.826;6.004;2022-10-26T18:14:20;13.00;99.90
14248;DHT22;7208;49.826;6.004;2022-10-26T18:16:45;13.00;99.90
14248;DHT22;7208;49.826;6.004;2022-10-26T18:19:11;12.90;99.90